createdAt,value
2019-03-09T00:01:23.671Z,4.17
2019-03-09T00:02:58.791Z,3.80
2019-03-09T00:04:33.581Z,3.90
2019-03-09T00:06:08.373Z,4.23
2019-03-09T00:07:43.374Z,4.10
2019-03-09T00:09:18.181Z,3.80
2019-03-09T00:10:52.920Z,3.90
2019-03-09T00:12:27.698Z,3.73
2019-03-09T00:14:02.510Z,3.67
2019-03-09T00:15:37.649Z,3.95
2019-03-09T00:17:12.382Z,3.07
2019-03-09T00:18:47.186Z,3.23
2019-03-09T00:20:21.965Z,2.83
2019-03-09T00:21:56.780Z,3.52
2019-03-09T00:23:53.525Z,3.23
2019-03-09T00:25:32.970Z,2.57
2019-03-09T00:27:30.310Z,3.47
2019-03-09T00:29:21.715Z,3.37
2019-03-09T00:31:07.753Z,3.47
2019-03-09T00:32:42.479Z,3.07
2019-03-09T00:34:17.262Z,2.57
2019-03-09T00:35:52.167Z,3.03
2019-03-09T00:37:26.984Z,2.70
2019-03-09T00:39:01.794Z,3.17
2019-03-09T00:40:38.717Z,2.80
2019-03-09T00:42:13.493Z,3.10
2019-03-09T00:43:48.267Z,2.73
2019-03-09T00:45:23.097Z,3.30
2019-03-09T00:46:57.961Z,3.03
2019-03-09T00:48:33.050Z,3.27
2019-03-09T00:50:08.980Z,2.50
2019-03-09T00:51:43.813Z,2.75
2019-03-09T00:53:18.585Z,2.83
2019-03-09T00:54:53.449Z,3.10
2019-03-09T00:56:28.509Z,2.70
2019-03-09T00:58:03.413Z,2.70
2019-03-09T00:59:38.155Z,2.80
2019-03-09T01:01:12.929Z,3.23
2019-03-09T01:02:47.710Z,2.70
2019-03-09T01:04:22.546Z,2.92
2019-03-09T01:05:57.254Z,2.33
2019-03-09T01:07:31.986Z,2.37
2019-03-09T01:09:08.797Z,2.30
2019-03-09T01:10:43.638Z,3.10
2019-03-09T01:12:18.450Z,2.50
2019-03-09T01:13:53.181Z,2.60
2019-03-09T01:15:28.032Z,2.50
2019-03-09T01:17:02.755Z,2.40
2019-03-09T01:18:37.653Z,2.40
2019-03-09T01:20:14.295Z,2.30
2019-03-09T01:21:49.026Z,2.37
2019-03-09T01:23:23.746Z,2.53
2019-03-09T01:24:58.470Z,3.50
2019-03-09T01:26:33.290Z,4.07
2019-03-09T01:28:08.099Z,3.80
2019-03-09T01:29:42.998Z,3.93
2019-03-09T01:31:17.790Z,4.63
2019-03-09T01:32:52.602Z,3.90
2019-03-09T01:34:27.433Z,3.77
2019-03-09T01:36:02.326Z,3.08
2019-03-09T01:37:37.150Z,4.10
2019-03-09T01:39:12.494Z,3.27
2019-03-09T01:40:47.401Z,3.50
2019-03-09T01:42:22.216Z,2.80
2019-03-09T01:43:56.999Z,2.60
2019-03-09T01:45:31.814Z,2.80
2019-03-09T01:47:07.594Z,2.57
2019-03-09T01:48:42.452Z,2.30
2019-03-09T01:50:17.282Z,2.53
2019-03-09T01:51:52.066Z,2.57
2019-03-09T01:53:36.520Z,2.57
2019-03-09T01:55:04.868Z,2.50
2019-03-09T01:56:41.157Z,2.30
2019-03-09T01:58:15.891Z,2.33
2019-03-09T01:59:50.683Z,2.87
2019-03-09T02:01:25.377Z,2.85
2019-03-09T02:03:00.168Z,2.50
2019-03-09T02:04:34.918Z,2.30
2019-03-09T02:06:09.719Z,2.60
2019-03-09T02:07:44.666Z,2.40
2019-03-09T02:09:19.381Z,2.43
2019-03-09T02:10:54.257Z,2.40
2019-03-09T02:12:29.063Z,2.43
2019-03-09T02:14:04.085Z,2.40
2019-03-09T02:15:38.993Z,2.70
2019-03-09T02:17:13.790Z,2.50
2019-03-09T02:18:48.661Z,2.90
2019-03-09T02:20:23.501Z,3.30
2019-03-09T02:21:58.224Z,2.77
2019-03-09T02:23:32.917Z,2.93
2019-03-09T02:25:08.211Z,2.87
2019-03-09T02:26:42.970Z,2.40
2019-03-09T02:28:17.678Z,2.57
2019-03-09T02:29:52.498Z,2.20
2019-03-09T02:31:27.197Z,2.50
2019-03-09T02:33:02.531Z,2.40
2019-03-09T02:34:38.434Z,2.10
2019-03-09T02:36:13.173Z,2.70
2019-03-09T02:37:48.870Z,2.67
2019-03-09T02:39:37.643Z,2.27
2019-03-09T02:41:12.478Z,2.40
2019-03-09T02:42:47.299Z,2.37
2019-03-09T02:44:22.009Z,2.20
2019-03-09T02:45:56.961Z,2.17
2019-03-09T02:47:31.745Z,2.40
2019-03-09T02:49:06.595Z,2.17
2019-03-09T02:50:55.479Z,2.57
2019-03-09T02:52:30.238Z,2.33
2019-03-09T02:54:05.121Z,2.27
2019-03-09T02:55:39.923Z,2.40
2019-03-09T02:57:14.651Z,2.77
2019-03-09T02:58:49.427Z,2.40
2019-03-09T03:00:24.214Z,2.80
2019-03-09T03:02:18.013Z,2.40
2019-03-09T03:03:52.719Z,2.43
2019-03-09T03:05:27.531Z,2.50
2019-03-09T03:07:02.419Z,2.80
2019-03-09T03:08:38.274Z,2.40
2019-03-09T03:10:14.584Z,2.97
2019-03-09T03:11:49.361Z,2.47
2019-03-09T03:13:24.156Z,2.27
2019-03-09T03:14:58.950Z,2.40
2019-03-09T03:16:34.757Z,2.33
2019-03-09T03:18:09.538Z,2.43
2019-03-09T03:19:44.294Z,2.23
2019-03-09T03:21:19.111Z,2.47
2019-03-09T03:22:53.850Z,2.17
2019-03-09T03:24:28.647Z,2.53
2019-03-09T03:26:04.471Z,1.80
2019-03-09T03:27:39.194Z,2.30
2019-03-09T03:29:16.987Z,2.43
2019-03-09T03:30:51.708Z,2.30
2019-03-09T03:32:29.203Z,2.27
2019-03-09T03:34:04.808Z,2.27
2019-03-09T03:35:39.628Z,2.37
2019-03-09T03:37:14.428Z,2.22
2019-03-09T03:38:49.165Z,2.20
2019-03-09T03:40:24.083Z,2.27
2019-03-09T03:41:59.210Z,1.87
2019-03-09T03:43:34.958Z,1.83
2019-03-09T03:45:09.822Z,2.00
2019-03-09T03:46:44.622Z,2.27
2019-03-09T03:48:19.408Z,1.60
2019-03-09T03:49:54.287Z,1.82
2019-03-09T03:51:28.987Z,2.10
2019-03-09T03:53:03.730Z,1.62
2019-03-09T03:54:38.490Z,1.60
2019-03-09T03:56:13.228Z,1.60
2019-03-09T03:57:48.073Z,1.73
2019-03-09T03:59:22.997Z,2.13
2019-03-09T04:00:58.025Z,1.95
2019-03-09T04:02:32.842Z,1.60
2019-03-09T04:04:07.560Z,2.07
2019-03-09T04:05:42.412Z,2.20
2019-03-09T04:07:17.317Z,2.00
2019-03-09T04:08:52.411Z,1.53
2019-03-09T04:10:27.279Z,1.90
2019-03-09T04:12:02.419Z,1.40
2019-03-09T04:13:37.345Z,1.50
2019-03-09T04:15:13.202Z,1.10
2019-03-09T04:16:48.121Z,0.90
2019-03-09T04:18:22.823Z,1.50
2019-03-09T04:19:57.618Z,1.00
2019-03-09T04:21:32.338Z,0.90
2019-03-09T04:23:07.042Z,0.80
2019-03-09T04:24:41.871Z,0.80
2019-03-09T04:26:16.745Z,0.70
2019-03-09T04:27:51.626Z,0.80
2019-03-09T04:29:26.411Z,0.88
2019-03-09T04:31:01.190Z,1.00
2019-03-09T04:32:35.938Z,0.70
2019-03-09T04:34:10.637Z,1.13
2019-03-09T04:35:45.402Z,0.87
2019-03-09T04:37:20.133Z,0.77
2019-03-09T04:38:54.925Z,0.80
2019-03-09T04:40:29.693Z,0.80
2019-03-09T04:42:04.525Z,0.72
2019-03-09T04:43:39.242Z,0.90
2019-03-09T04:45:14.194Z,1.00
2019-03-09T04:46:48.932Z,0.90
2019-03-09T04:48:23.665Z,0.70
2019-03-09T04:49:58.361Z,0.75
2019-03-09T04:51:33.341Z,0.72
2019-03-09T04:53:09.150Z,1.00
2019-03-09T04:54:43.892Z,0.62
2019-03-09T04:56:18.701Z,1.00
2019-03-09T04:57:53.527Z,0.80
2019-03-09T04:59:28.305Z,0.70
2019-03-09T05:01:03.091Z,0.70
2019-03-09T05:02:37.889Z,0.80
2019-03-09T05:04:44.315Z,0.70
2019-03-09T05:06:19.339Z,0.60
2019-03-09T05:08:10.125Z,0.80
2019-03-09T05:10:11.808Z,0.70
2019-03-09T05:11:46.590Z,0.80
2019-03-09T05:13:42.517Z,0.72
2019-03-09T05:15:17.265Z,0.80
2019-03-09T05:16:52.058Z,0.70
2019-03-09T05:18:26.866Z,1.00
2019-03-09T05:20:01.665Z,0.80
2019-03-09T05:21:36.425Z,0.50
2019-03-09T05:23:11.130Z,0.83
2019-03-09T05:24:45.926Z,1.10
2019-03-09T05:26:20.690Z,0.80
2019-03-09T05:27:55.641Z,0.70
2019-03-09T05:29:30.381Z,0.67
2019-03-09T05:31:05.102Z,0.70
2019-03-09T05:32:40.193Z,0.70
2019-03-09T05:34:15.860Z,0.80
2019-03-09T05:35:50.893Z,0.90
2019-03-09T05:37:25.673Z,0.80
2019-03-09T05:39:00.378Z,0.80
2019-03-09T05:40:35.529Z,1.10
2019-03-09T05:42:10.257Z,1.00
2019-03-09T05:43:44.961Z,0.77
2019-03-09T05:45:20.026Z,1.00
2019-03-09T05:46:54.754Z,0.90
2019-03-09T05:48:29.496Z,1.00
2019-03-09T05:50:04.915Z,0.83
2019-03-09T05:51:39.753Z,0.87
2019-03-09T05:53:19.623Z,1.00
2019-03-09T05:54:54.350Z,1.00
2019-03-09T05:56:29.574Z,0.80
2019-03-09T05:58:04.461Z,0.90
2019-03-09T05:59:39.166Z,0.90
2019-03-09T06:01:13.942Z,0.87
2019-03-09T06:02:48.680Z,0.93
2019-03-09T06:04:23.394Z,1.10
2019-03-09T06:06:10.121Z,1.07
2019-03-09T06:07:44.894Z,0.80
2019-03-09T06:09:19.670Z,0.97
2019-03-09T06:10:54.407Z,0.90
2019-03-09T06:12:29.186Z,1.00
2019-03-09T06:14:04.349Z,1.30
2019-03-09T06:15:39.204Z,1.50
2019-03-09T06:17:13.921Z,1.30
2019-03-09T06:18:48.634Z,1.70
2019-03-09T06:20:23.397Z,1.50
2019-03-09T06:21:58.098Z,1.50
2019-03-09T06:23:32.901Z,1.37
2019-03-09T06:25:07.682Z,1.10
2019-03-09T06:26:43.354Z,1.10
2019-03-09T06:28:18.159Z,0.90
2019-03-09T06:29:52.969Z,1.00
2019-03-09T06:31:27.697Z,1.00
2019-03-09T06:33:44.294Z,1.10
2019-03-09T06:35:19.149Z,1.23
2019-03-09T06:37:05.269Z,1.13
2019-03-09T06:38:52.886Z,1.20
2019-03-09T06:40:27.651Z,1.00
2019-03-09T06:42:51.954Z,1.10
2019-03-09T06:44:26.773Z,1.32
2019-03-09T06:46:01.525Z,1.17
2019-03-09T06:47:36.322Z,1.33
2019-03-09T06:49:11.175Z,1.13
2019-03-09T06:50:45.886Z,1.20
2019-03-09T06:52:20.620Z,1.20
2019-03-09T06:53:55.419Z,1.37
2019-03-09T06:55:30.185Z,1.20
2019-03-09T06:57:13.443Z,1.57
2019-03-09T06:58:42.449Z,1.20
2019-03-09T07:00:37.586Z,1.17
2019-03-09T07:02:12.528Z,1.30
2019-03-09T07:03:47.315Z,1.20
2019-03-09T07:05:22.036Z,1.20
2019-03-09T07:06:56.777Z,1.50
2019-03-09T07:08:31.566Z,1.83
2019-03-09T07:10:06.471Z,1.40
2019-03-09T07:11:41.237Z,1.97
2019-03-09T07:13:16.021Z,1.77
2019-03-09T07:15:18.866Z,1.37
2019-03-09T07:16:53.606Z,1.10
2019-03-09T07:18:32.376Z,1.30
2019-03-09T07:20:12.549Z,1.40
2019-03-09T07:21:44.635Z,1.30
2019-03-09T07:23:19.494Z,1.00
2019-03-09T07:24:54.197Z,1.03
2019-03-09T07:26:29.187Z,1.20
2019-03-09T07:28:05.821Z,1.30
2019-03-09T07:29:40.621Z,1.67
2019-03-09T07:31:15.545Z,1.20
2019-03-09T07:32:50.271Z,1.37
2019-03-09T07:34:26.009Z,1.30
2019-03-09T07:36:01.366Z,1.20
2019-03-09T07:37:37.044Z,1.00
2019-03-09T07:39:11.888Z,1.50
2019-03-09T07:40:48.303Z,1.70
2019-03-09T07:42:23.089Z,1.40
2019-03-09T07:43:57.882Z,1.20
2019-03-09T07:45:32.768Z,1.03
2019-03-09T07:47:07.500Z,1.33
2019-03-09T07:48:42.242Z,0.87
2019-03-09T07:50:17.114Z,1.57
2019-03-09T07:51:51.841Z,1.10
2019-03-09T07:53:26.586Z,1.70
2019-03-09T07:55:01.455Z,1.70
2019-03-09T07:56:36.254Z,1.37
2019-03-09T07:58:11.054Z,1.70
2019-03-09T07:59:46.198Z,1.30
2019-03-09T08:01:23.937Z,1.53
2019-03-09T08:02:58.445Z,1.23
2019-03-09T08:04:33.188Z,1.50
2019-03-09T08:06:07.982Z,1.80
2019-03-09T08:07:42.730Z,1.60
2019-03-09T08:09:17.522Z,1.40
2019-03-09T08:10:52.293Z,1.37
2019-03-09T08:12:27.194Z,1.30
2019-03-09T08:14:02.065Z,1.50
2019-03-09T08:15:36.898Z,2.17
2019-03-09T08:17:12.030Z,1.50
2019-03-09T08:18:46.750Z,1.73
2019-03-09T08:20:21.717Z,1.57
2019-03-09T08:21:56.533Z,1.23
2019-03-09T08:23:31.308Z,2.00
2019-03-09T08:25:09.588Z,1.30
2019-03-09T08:26:44.374Z,1.40
2019-03-09T08:28:19.109Z,1.60
2019-03-09T08:29:53.854Z,1.33
2019-03-09T08:31:28.665Z,1.37
2019-03-09T08:33:03.695Z,1.43
2019-03-09T08:34:38.517Z,1.50
2019-03-09T08:36:13.350Z,1.40
2019-03-09T08:37:48.861Z,1.40
2019-03-09T08:39:24.562Z,1.77
2019-03-09T08:40:59.442Z,1.17
2019-03-09T08:42:34.264Z,1.50
2019-03-09T08:44:09.080Z,1.30
2019-03-09T08:45:43.980Z,1.50
2019-03-09T08:47:18.760Z,1.47
2019-03-09T08:48:53.550Z,1.47
2019-03-09T08:50:28.309Z,1.40
2019-03-09T08:52:03.108Z,1.60
2019-03-09T08:53:37.917Z,1.43
2019-03-09T08:55:13.362Z,1.30
2019-03-09T08:56:48.154Z,1.40
2019-03-09T08:58:22.943Z,1.77
2019-03-09T08:59:57.747Z,1.60
2019-03-09T09:01:33.514Z,1.60
2019-03-09T09:03:08.344Z,1.63
2019-03-09T09:04:43.176Z,1.70
2019-03-09T09:06:17.937Z,1.70
2019-03-09T09:07:52.677Z,1.60
2019-03-09T09:09:27.468Z,1.50
2019-03-09T09:11:02.283Z,1.47
2019-03-09T09:12:37.180Z,1.50
2019-03-09T09:14:12.002Z,1.73
2019-03-09T09:15:46.782Z,1.60
2019-03-09T09:17:21.642Z,1.60
2019-03-09T09:18:56.358Z,2.03
2019-03-09T09:20:31.109Z,1.40
2019-03-09T09:22:06.770Z,1.70
2019-03-09T09:23:41.765Z,1.50
2019-03-09T09:25:16.648Z,1.70
2019-03-09T09:26:51.481Z,1.57
2019-03-09T09:28:26.201Z,2.63
2019-03-09T09:30:00.927Z,1.93
2019-03-09T09:31:35.666Z,2.00
2019-03-09T09:33:10.469Z,1.97
2019-03-09T09:34:45.207Z,1.77
2019-03-09T09:36:20.213Z,1.70
2019-03-09T09:37:55.213Z,1.90
2019-03-09T09:39:30.078Z,1.30
2019-03-09T09:41:05.014Z,1.87
2019-03-09T09:42:39.730Z,1.70
2019-03-09T09:44:14.464Z,1.90
2019-03-09T09:45:49.350Z,1.40
2019-03-09T09:47:24.154Z,1.80
2019-03-09T09:48:58.916Z,1.90
2019-03-09T09:50:33.694Z,1.60
2019-03-09T09:52:08.413Z,1.77
2019-03-09T09:53:43.176Z,1.57
2019-03-09T09:55:17.972Z,1.57
2019-03-09T09:56:52.746Z,1.80
2019-03-09T09:58:28.554Z,1.50
2019-03-09T10:00:03.543Z,1.47
2019-03-09T10:01:38.251Z,1.83
2019-03-09T10:03:16.250Z,1.80
2019-03-09T10:04:51.258Z,1.43
2019-03-09T10:06:26.162Z,1.40
2019-03-09T10:08:01.924Z,1.20
2019-03-09T10:09:36.731Z,1.70
2019-03-09T10:11:12.550Z,1.33
2019-03-09T10:12:47.514Z,1.23
2019-03-09T10:14:22.237Z,1.77
2019-03-09T10:15:57.033Z,1.67
2019-03-09T10:17:31.794Z,1.53
2019-03-09T10:19:06.580Z,1.60
2019-03-09T10:20:41.321Z,1.57
2019-03-09T10:22:16.112Z,1.60
2019-03-09T10:23:50.818Z,1.53
2019-03-09T10:25:26.662Z,1.50
2019-03-09T10:27:02.750Z,1.47
2019-03-09T10:28:37.517Z,1.57
2019-03-09T10:30:15.123Z,1.73
2019-03-09T10:31:49.898Z,1.50
2019-03-09T10:33:24.649Z,2.10
2019-03-09T10:34:59.448Z,1.80
2019-03-09T10:36:34.166Z,1.70
2019-03-09T10:38:08.966Z,2.20
2019-03-09T10:39:43.710Z,2.03
2019-03-09T10:41:18.510Z,3.57
2019-03-09T10:42:53.321Z,2.87
2019-03-09T10:44:28.070Z,1.80
2019-03-09T10:46:02.891Z,2.10
2019-03-09T10:47:37.602Z,2.33
2019-03-09T10:49:12.489Z,2.00
2019-03-09T10:50:47.216Z,2.03
2019-03-09T10:52:21.921Z,1.77
2019-03-09T10:53:56.634Z,2.23
2019-03-09T10:55:31.513Z,2.37
2019-03-09T10:57:06.378Z,2.37
2019-03-09T10:58:41.098Z,2.10
2019-03-09T11:00:21.106Z,3.07
2019-03-09T11:01:55.939Z,2.60
2019-03-09T11:03:30.662Z,2.10
2019-03-09T11:05:05.846Z,2.17
2019-03-09T11:06:40.646Z,2.00
2019-03-09T11:08:15.561Z,2.13
2019-03-09T11:09:50.283Z,2.20
2019-03-09T11:11:25.104Z,1.93
2019-03-09T11:13:01.312Z,2.23
2019-03-09T11:14:36.191Z,2.13
2019-03-09T11:16:11.069Z,2.23
2019-03-09T11:17:45.922Z,2.23
2019-03-09T11:19:20.831Z,2.33
2019-03-09T11:20:55.782Z,2.10
2019-03-09T11:22:30.514Z,2.03
2019-03-09T11:24:05.268Z,2.20
2019-03-09T11:25:40.089Z,2.50
2019-03-09T11:27:14.993Z,1.80
2019-03-09T11:28:51.349Z,1.97
2019-03-09T11:30:26.393Z,2.10
2019-03-09T11:32:01.109Z,2.10
2019-03-09T11:33:35.833Z,2.03
2019-03-09T11:35:10.657Z,2.30
2019-03-09T11:36:45.392Z,2.30
2019-03-09T11:38:20.196Z,2.67
2019-03-09T11:39:55.806Z,2.73
2019-03-09T11:41:30.582Z,2.70
2019-03-09T11:43:05.598Z,2.40
2019-03-09T11:44:40.405Z,2.57
2019-03-09T11:46:15.231Z,2.70
2019-03-09T11:47:50.065Z,2.70
2019-03-09T11:49:24.795Z,2.80
2019-03-09T11:50:59.641Z,2.47
2019-03-09T11:52:34.371Z,2.37
2019-03-09T11:54:09.154Z,2.87
2019-03-09T11:55:43.950Z,2.70
2019-03-09T11:57:18.736Z,2.57
2019-03-09T11:58:53.446Z,2.47
2019-03-09T12:00:30.697Z,2.87
2019-03-09T12:02:05.549Z,2.83
2019-03-09T12:03:40.616Z,2.70
2019-03-09T12:05:15.453Z,2.60
2019-03-09T12:06:50.270Z,2.97
2019-03-09T12:08:25.374Z,3.00
2019-03-09T12:10:00.108Z,2.53
2019-03-09T12:11:35.922Z,3.10
2019-03-09T12:13:10.700Z,2.87
2019-03-09T12:14:45.582Z,2.60
2019-03-09T12:16:20.454Z,2.70
2019-03-09T12:17:55.363Z,2.60
2019-03-09T12:19:30.249Z,2.73
2019-03-09T12:21:04.977Z,2.90
2019-03-09T12:22:39.829Z,3.13
2019-03-09T12:24:18.724Z,2.70
2019-03-09T12:25:51.145Z,3.30
2019-03-09T12:27:25.871Z,3.20
2019-03-09T12:29:00.655Z,3.30
2019-03-09T12:30:35.467Z,3.40
2019-03-09T12:32:10.265Z,3.47
2019-03-09T12:33:44.969Z,3.67
2019-03-09T12:35:19.854Z,3.90
2019-03-09T12:36:54.630Z,4.60
2019-03-09T12:38:30.789Z,4.60
2019-03-09T12:40:06.250Z,4.27
2019-03-09T12:41:41.007Z,4.43
2019-03-09T12:43:15.890Z,4.63
2019-03-09T12:44:51.586Z,5.10
2019-03-09T12:46:26.322Z,4.90
2019-03-09T12:48:01.037Z,4.13
2019-03-09T12:49:36.902Z,4.70
2019-03-09T12:51:11.646Z,4.90
2019-03-09T12:52:46.625Z,5.10
2019-03-09T12:54:21.416Z,5.30
2019-03-09T12:55:56.331Z,5.20
2019-03-09T12:57:31.087Z,4.90
2019-03-09T12:59:05.918Z,5.57
2019-03-09T13:00:40.667Z,4.80
2019-03-09T13:02:15.541Z,4.70
2019-03-09T13:03:50.262Z,4.90
2019-03-09T13:05:25.046Z,4.90
2019-03-09T13:06:59.854Z,4.70
2019-03-09T13:08:34.614Z,4.90
2019-03-09T13:10:09.715Z,4.87
2019-03-09T13:11:44.571Z,4.93
2019-03-09T13:13:19.293Z,4.97
2019-03-09T13:14:54.154Z,4.60
2019-03-09T13:16:28.863Z,4.93
2019-03-09T13:18:03.746Z,4.90
2019-03-09T13:19:38.487Z,4.80
2019-03-09T13:21:14.271Z,4.60
2019-03-09T13:22:49.061Z,4.50
2019-03-09T13:24:23.778Z,4.60
2019-03-09T13:25:58.722Z,4.10
2019-03-09T13:27:33.547Z,4.20
2019-03-09T13:29:08.317Z,4.40
2019-03-09T13:30:43.110Z,4.00
2019-03-09T13:32:17.925Z,4.73
2019-03-09T13:33:52.641Z,4.10
2019-03-09T13:35:27.485Z,4.53
2019-03-09T13:37:02.197Z,4.83
2019-03-09T13:38:36.954Z,3.90
2019-03-09T13:40:11.897Z,4.57
2019-03-09T13:41:46.619Z,4.27
2019-03-09T13:43:21.417Z,4.57
2019-03-09T13:44:56.164Z,4.87
2019-03-09T13:46:30.969Z,4.60
2019-03-09T13:48:05.783Z,3.73
2019-03-09T13:49:42.617Z,3.27
2019-03-09T13:51:17.359Z,3.45
2019-03-09T13:52:52.168Z,3.10
2019-03-09T13:54:28.299Z,3.03
2019-03-09T13:56:03.091Z,2.67
2019-03-09T13:57:37.869Z,3.30
2019-03-09T13:59:12.582Z,3.33
2019-03-09T14:00:47.319Z,3.33
2019-03-09T14:02:22.022Z,3.30
2019-03-09T14:03:56.739Z,3.23
2019-03-09T14:05:31.586Z,3.63
2019-03-09T14:07:07.415Z,3.83
2019-03-09T14:08:42.157Z,3.63
2019-03-09T14:10:17.081Z,3.93
2019-03-09T14:11:51.818Z,4.37
2019-03-09T14:13:27.536Z,4.73
2019-03-09T14:15:02.268Z,4.40
2019-03-09T14:16:38.105Z,4.20
2019-03-09T14:18:12.951Z,4.70
2019-03-09T14:19:47.655Z,4.13
2019-03-09T14:21:22.350Z,4.20
2019-03-09T14:22:57.165Z,5.00
2019-03-09T14:24:31.889Z,4.40
2019-03-09T14:26:06.659Z,4.43
2019-03-09T14:27:41.464Z,4.40
2019-03-09T14:29:16.263Z,4.37
2019-03-09T14:30:50.982Z,4.33
2019-03-09T14:32:25.696Z,4.50
2019-03-09T14:34:00.499Z,4.23
2019-03-09T14:35:35.217Z,4.10
2019-03-09T14:37:10.016Z,4.03
2019-03-09T14:38:44.808Z,4.20
2019-03-09T14:40:19.741Z,4.17
2019-03-09T14:41:54.487Z,4.37
2019-03-09T14:43:29.229Z,4.23
2019-03-09T14:45:04.606Z,4.70
2019-03-09T14:46:39.411Z,3.70
2019-03-09T14:48:14.363Z,3.90
2019-03-09T14:49:49.186Z,4.37
2019-03-09T14:51:23.995Z,4.30
2019-03-09T14:52:58.717Z,4.40
2019-03-09T14:54:33.517Z,4.73
2019-03-09T14:56:08.237Z,4.33
2019-03-09T14:57:43.479Z,5.27
2019-03-09T14:59:18.201Z,4.47
2019-03-09T15:00:52.934Z,5.17
2019-03-09T15:02:27.661Z,4.50
2019-03-09T15:04:02.394Z,4.87
2019-03-09T15:05:37.094Z,4.57
2019-03-09T15:07:11.853Z,4.63
2019-03-09T15:08:46.661Z,4.83
2019-03-09T15:10:21.517Z,4.60
2019-03-09T15:11:56.629Z,4.37
2019-03-09T15:13:31.450Z,4.90
2019-03-09T15:15:06.910Z,4.17
2019-03-09T15:16:41.639Z,3.57
2019-03-09T15:18:16.353Z,4.30
2019-03-09T15:19:51.151Z,4.67
2019-03-09T15:21:25.932Z,4.17
2019-03-09T15:23:00.789Z,3.43
2019-03-09T15:24:35.503Z,3.30
2019-03-09T15:26:10.229Z,3.70
2019-03-09T15:27:45.026Z,3.27
2019-03-09T15:29:19.824Z,3.30
2019-03-09T15:30:54.719Z,2.90
2019-03-09T15:32:30.429Z,3.07
2019-03-09T15:34:05.214Z,3.23
2019-03-09T15:35:39.957Z,3.20
2019-03-09T15:37:14.849Z,1.67
2019-03-09T15:38:49.843Z,1.43
2019-03-09T15:40:24.699Z,1.60
2019-03-09T15:41:59.490Z,1.50
2019-03-09T15:43:37.418Z,1.80
2019-03-09T15:45:12.669Z,1.77
2019-03-09T15:46:47.432Z,1.60
2019-03-09T15:48:23.218Z,1.50
2019-03-09T15:49:58.271Z,1.60
2019-03-09T15:51:33.082Z,1.30
2019-03-09T15:53:08.189Z,1.40
2019-03-09T15:54:43.066Z,1.40
2019-03-09T15:56:17.819Z,1.50
2019-03-09T15:57:52.705Z,1.73
2019-03-09T15:59:27.505Z,1.60
2019-03-09T16:01:02.214Z,1.73
2019-03-09T16:02:36.934Z,1.67
2019-03-09T16:04:11.674Z,1.57
2019-03-09T16:05:46.421Z,1.80
2019-03-09T16:07:21.269Z,1.83
2019-03-09T16:08:56.069Z,2.17
2019-03-09T16:10:30.934Z,1.67
2019-03-09T16:12:05.821Z,1.57
2019-03-09T16:13:40.518Z,1.73
2019-03-09T16:15:15.390Z,2.30
2019-03-09T16:16:50.110Z,1.90
2019-03-09T16:18:25.012Z,1.57
2019-03-09T16:19:59.873Z,1.67
2019-03-09T16:21:34.718Z,1.80
2019-03-09T16:23:09.573Z,1.87
2019-03-09T16:24:44.314Z,1.63
2019-03-09T16:26:19.595Z,1.70
2019-03-09T16:27:54.457Z,1.17
2019-03-09T16:29:29.162Z,1.57
2019-03-09T16:31:03.945Z,0.87
2019-03-09T16:32:38.642Z,1.30
2019-03-09T16:34:13.393Z,1.20
2019-03-09T16:35:48.242Z,1.40
2019-03-09T16:37:23.065Z,1.60
2019-03-09T16:38:57.868Z,1.83
2019-03-09T16:40:40.423Z,1.40
2019-03-09T16:42:10.318Z,2.00
2019-03-09T16:43:45.182Z,1.57
2019-03-09T16:45:20.216Z,1.30
2019-03-09T16:46:55.000Z,1.33
2019-03-09T16:48:29.693Z,1.37
2019-03-09T16:50:05.198Z,1.47
2019-03-09T16:51:39.914Z,1.33
2019-03-09T16:53:14.730Z,0.93
2019-03-09T16:54:49.518Z,1.13
2019-03-09T16:56:24.227Z,1.17
2019-03-09T16:57:59.089Z,1.15
2019-03-09T16:59:33.805Z,0.67
2019-03-09T17:01:08.585Z,0.63
2019-03-09T17:02:43.381Z,1.00
2019-03-09T17:04:18.179Z,0.83
2019-03-09T17:05:52.921Z,0.70
2019-03-09T17:07:27.909Z,0.63
2019-03-09T17:09:03.144Z,0.40
2019-03-09T17:10:39.513Z,0.30
2019-03-09T17:12:14.262Z,0.40
2019-03-09T17:13:49.057Z,0.60
2019-03-09T17:15:23.877Z,0.40
2019-03-09T17:16:58.590Z,0.53
2019-03-09T17:18:34.566Z,0.50
2019-03-09T17:20:10.461Z,0.60
2019-03-09T17:21:45.278Z,0.40
2019-03-09T17:23:20.117Z,0.47
2019-03-09T17:24:54.830Z,0.50
2019-03-09T17:26:29.609Z,0.47
2019-03-09T17:28:04.546Z,0.80
2019-03-09T17:29:39.366Z,0.40
2019-03-09T17:31:14.082Z,0.50
2019-03-09T17:32:49.008Z,0.50
2019-03-09T17:34:23.756Z,0.57
2019-03-09T17:35:58.551Z,0.73
2019-03-09T17:37:33.270Z,0.70
2019-03-09T17:39:10.556Z,0.83
2019-03-09T17:40:45.465Z,0.80
2019-03-09T17:42:20.147Z,0.70
2019-03-09T17:43:54.858Z,0.97
2019-03-09T17:45:30.282Z,0.70
2019-03-09T17:47:05.098Z,0.50
2019-03-09T17:48:39.905Z,0.70
2019-03-09T17:50:14.953Z,0.60
2019-03-09T17:51:49.778Z,0.80
2019-03-09T17:53:25.454Z,0.80
2019-03-09T17:55:00.301Z,0.47
2019-03-09T17:56:35.079Z,0.90
2019-03-09T17:58:09.938Z,1.10
2019-03-09T17:59:45.627Z,0.67
2019-03-09T18:01:20.338Z,1.30
2019-03-09T18:02:55.037Z,0.85
2019-03-09T18:04:29.851Z,0.93
2019-03-09T18:06:04.633Z,0.80
2019-03-09T18:07:42.469Z,0.53
2019-03-09T18:09:17.202Z,0.80
2019-03-09T18:10:55.290Z,0.87
2019-03-09T18:12:30.062Z,0.80
2019-03-09T18:14:07.219Z,0.60
2019-03-09T18:15:41.445Z,0.70
2019-03-09T18:17:16.358Z,0.68
2019-03-09T18:18:51.222Z,0.60
2019-03-09T18:20:25.944Z,0.70
2019-03-09T18:22:00.652Z,1.02
2019-03-09T18:23:35.439Z,0.40
2019-03-09T18:25:10.406Z,0.50
2019-03-09T18:26:45.219Z,0.55
2019-03-09T18:28:20.084Z,0.50
2019-03-09T18:29:56.766Z,0.40
2019-03-09T18:31:32.341Z,0.45
2019-03-09T18:33:07.146Z,0.40
2019-03-09T18:34:41.942Z,0.37
2019-03-09T18:36:16.638Z,0.50
2019-03-09T18:37:51.381Z,0.30
2019-03-09T18:39:26.090Z,0.55
2019-03-09T18:41:00.814Z,0.40
2019-03-09T18:42:35.625Z,0.53
2019-03-09T18:44:10.530Z,0.40
2019-03-09T18:45:45.230Z,0.68
2019-03-09T18:47:20.022Z,0.40
2019-03-09T18:48:54.810Z,0.40
2019-03-09T18:50:29.613Z,0.60
2019-03-09T18:52:04.405Z,0.30
2019-03-09T18:53:39.141Z,0.57
2019-03-09T18:55:14.290Z,0.50
2019-03-09T18:56:49.038Z,0.60
2019-03-09T18:58:23.810Z,0.42
2019-03-09T18:59:58.526Z,0.68
2019-03-09T19:01:33.273Z,0.40
2019-03-09T19:03:07.998Z,0.65
2019-03-09T19:04:42.778Z,0.30
2019-03-09T19:06:17.531Z,0.60
2019-03-09T19:07:52.396Z,0.90
2019-03-09T19:09:27.117Z,0.50
2019-03-09T19:11:01.844Z,0.40
2019-03-09T19:12:36.589Z,0.50
2019-03-09T19:14:11.374Z,0.65
2019-03-09T19:15:46.131Z,0.53
2019-03-09T19:17:20.944Z,0.60
2019-03-09T19:18:55.721Z,0.68
2019-03-09T19:20:30.526Z,0.87
2019-03-09T19:22:05.369Z,0.65
2019-03-09T19:23:40.309Z,0.80
2019-03-09T19:25:15.309Z,0.80
2019-03-09T19:26:50.092Z,0.50
2019-03-09T19:28:24.882Z,0.45
2019-03-09T19:29:59.654Z,0.57
2019-03-09T19:31:34.517Z,0.90
2019-03-09T19:33:09.345Z,0.57
2019-03-09T19:34:44.062Z,0.80
2019-03-09T19:36:18.790Z,0.82
2019-03-09T19:37:53.572Z,0.68
2019-03-09T19:39:28.322Z,0.70
2019-03-09T19:41:03.184Z,0.80
2019-03-09T19:42:37.917Z,0.60
2019-03-09T19:44:12.637Z,0.75
2019-03-09T19:45:47.481Z,0.57
2019-03-09T19:47:22.306Z,0.80
2019-03-09T19:48:57.090Z,1.03
2019-03-09T19:50:31.891Z,0.50
2019-03-09T19:52:06.613Z,0.93
2019-03-09T19:53:41.317Z,0.62
2019-03-09T19:55:16.234Z,1.05
2019-03-09T19:56:50.977Z,0.70
2019-03-09T19:58:25.697Z,0.98
2019-03-09T20:00:00.503Z,0.80
2019-03-09T20:01:35.240Z,0.62
2019-03-09T20:03:09.967Z,0.80
2019-03-09T20:04:44.750Z,0.65
2019-03-09T20:06:19.497Z,0.55
2019-03-09T20:07:54.332Z,0.70
2019-03-09T20:09:29.109Z,0.88
2019-03-09T20:11:03.853Z,0.80
2019-03-09T20:12:39.545Z,1.15
2019-03-09T20:14:14.362Z,1.02
2019-03-09T20:15:49.226Z,0.82
2019-03-09T20:17:23.981Z,0.82
2019-03-09T20:18:58.793Z,1.02
2019-03-09T20:20:33.793Z,1.07
2019-03-09T20:22:08.497Z,0.70
2019-03-09T20:23:43.294Z,1.00
2019-03-09T20:25:18.200Z,0.80
2019-03-09T20:26:53.031Z,0.75
2019-03-09T20:28:27.831Z,0.78
2019-03-09T20:30:02.619Z,0.90
2019-03-09T20:31:37.709Z,0.75
2019-03-09T20:33:12.582Z,0.80
2019-03-09T20:34:47.410Z,1.00
2019-03-09T20:36:22.418Z,0.80
2019-03-09T20:37:57.213Z,0.93
2019-03-09T20:39:32.365Z,0.60
2019-03-09T20:41:07.201Z,0.82
2019-03-09T20:42:41.941Z,0.70
2019-03-09T20:44:16.642Z,0.85
2019-03-09T20:45:51.433Z,0.60
2019-03-09T20:47:26.198Z,0.75
2019-03-09T20:49:00.898Z,1.60
2019-03-09T20:50:35.630Z,1.00
2019-03-09T20:52:10.438Z,0.62
2019-03-09T20:53:45.168Z,0.60
2019-03-09T20:55:20.121Z,0.78
2019-03-09T20:56:54.848Z,0.60
2019-03-09T20:58:29.590Z,0.65
2019-03-09T21:00:05.373Z,0.50
2019-03-09T21:01:40.499Z,0.80
2019-03-09T21:03:15.286Z,0.70
2019-03-09T21:04:50.098Z,0.88
2019-03-09T21:06:24.927Z,0.78
2019-03-09T21:08:00.858Z,0.60
2019-03-09T21:09:35.707Z,0.60
2019-03-09T21:11:10.459Z,1.17